Time;durP1;ratioP1;P1;durP2;ratioP2;P2;SDS_P1;SDS_P2;PMS_P1;PMS_P2;Temp;Humidity;BMP_temperature;BMP_pressure;BME280_temperature;BME280_humidity;BME280_pressure;Samples;Min_cycle;Max_cycle;Signal;HPM_P1;HPM_P2
2021/01/24 00:00:32;;;;;;;28.70;20.55;;;;;;;2.40;93.83;97802.81;1740620;82;21614;-56
2021/01/24 00:03:00;;;;;;;31.05;20.35;;;;;;;2.44;93.66;97803.59;1719838;82;21128;-60
2021/01/24 00:05:28;;;;;;;29.67;18.60;;;;;;;2.46;93.62;97800.09;1740572;82;21211;-56
2021/01/24 00:07:56;;;;;;;39.58;22.90;;;;;;;2.46;93.55;97793.69;1740518;82;21168;-56
2021/01/24 00:10:24;;;;;;;32.90;20.65;;;;;;;2.45;93.35;97802.27;1740540;82;21420;-58
2021/01/24 00:12:52;;;;;;;29.60;19.20;;;;;;;2.43;93.27;97794.22;1740439;81;21518;-58
2021/01/24 00:15:20;;;;;;;27.62;19.42;;;;;;;2.42;93.25;97801.08;1740563;81;21160;-55
2021/01/24 00:17:47;;;;;;;29.02;19.55;;;;;;;2.42;93.25;97794.67;1740532;82;21132;-58
2021/01/24 00:20:15;;;;;;;29.07;19.82;;;;;;;2.43;93.20;97800.19;1740565;82;21069;-56
2021/01/24 00:22:43;;;;;;;32.90;20.77;;;;;;;2.42;93.14;97784.41;1740564;82;21199;-56
2021/01/24 00:25:12;;;;;;;31.48;20.57;;;;;;;2.42;93.06;97785.69;1740353;81;21725;-56
2021/01/24 00:27:40;;;;;;;30.52;20.72;;;;;;;2.41;92.93;97789.11;1740567;82;21066;-56
2021/01/24 00:30:09;;;;;;;30.48;19.45;;;;;;;2.36;92.75;97789.69;1740504;82;21157;-56
2021/01/24 00:32:37;;;;;;;36.13;22.13;;;;;;;2.29;92.73;97785.60;1740569;82;21232;-58
2021/01/24 00:35:08;;;;;;;32.35;21.25;;;;;;;2.23;92.87;97785.75;1740415;82;22065;-62
2021/01/24 00:37:38;;;;;;;34.13;21.65;;;;;;;2.20;93.09;97791.80;1740560;82;21156;-56
2021/01/24 00:40:07;;;;;;;37.70;23.07;;;;;;;2.19;93.19;97780.28;1740525;82;21062;-56
2021/01/24 00:42:36;;;;;;;32.40;20.62;;;;;;;2.18;93.33;97776.88;1740686;82;21515;-56
2021/01/24 00:45:07;;;;;;;30.32;19.32;;;;;;;2.15;93.38;97775.69;1740529;81;21125;-56
2021/01/24 00:47:57;;;;;;;29.05;18.73;;;;;;;2.15;93.45;97771.00;1740621;82;21355;-57
2021/01/24 00:50:25;;;;;;;35.92;21.23;;;;;;;2.14;93.52;97770.61;1760000;81;21236;-56
2021/01/24 00:52:53;;;;;;;34.15;21.80;;;;;;;2.13;93.61;97772.33;1759503;81;21191;-58
2021/01/24 00:55:21;;;;;;;35.08;21.12;;;;;;;2.11;93.69;97775.34;1759578;81;21135;-56
2021/01/24 00:57:49;;;;;;;34.20;21.50;;;;;;;2.11;93.69;97770.66;1759642;81;21133;-56
2021/01/24 01:00:18;;;;;;;33.70;20.82;;;;;;;2.12;93.68;97769.81;1759480;81;21459;-56
2021/01/24 01:02:46;;;;;;;29.02;20.25;;;;;;;2.12;93.71;97768.53;1759593;81;21096;-56
2021/01/24 01:05:15;;;;;;;31.87;21.75;;;;;;;2.13;93.78;97768.93;1759337;81;21125;-56
2021/01/24 01:07:43;;;;;;;32.05;21.75;;;;;;;2.15;93.85;97767.16;1759626;81;21061;-56
2021/01/24 01:10:15;;;;;;;24.72;17.98;;;;;;;2.15;93.83;97762.03;1759686;81;21120;-56
2021/01/24 01:12:43;;;;;;;27.48;18.87;;;;;;;2.15;93.78;97764.59;1759610;81;21372;-56
2021/01/24 01:15:13;;;;;;;40.15;22.42;;;;;;;2.14;93.74;97762.92;1759504;81;21128;-56
2021/01/24 01:17:40;;;;;;;28.52;19.07;;;;;;;2.14;93.79;97753.95;1759619;81;21127;-56
2021/01/24 01:20:10;;;;;;;24.00;18.80;;;;;;;2.13;93.90;97744.14;1759563;81;21611;-56
2021/01/24 01:22:37;;;;;;;30.27;20.37;;;;;;;2.17;94.06;97734.19;1759613;81;21207;-56
2021/01/24 01:25:07;;;;;;;32.60;21.95;;;;;;;2.23;94.04;97738.32;1759521;81;21223;-56
2021/01/24 01:27:37;;;;;;;28.87;19.60;;;;;;;2.28;93.99;97731.36;1759491;81;21096;-55
2021/01/24 01:30:06;;;;;;;30.88;21.20;;;;;;;2.31;93.95;97727.42;1759578;81;21093;-56
2021/01/24 01:32:34;;;;;;;29.35;19.50;;;;;;;2.35;93.82;97726.47;1759586;81;21077;-55
2021/01/24 01:35:05;;;;;;;31.55;20.80;;;;;;;2.35;93.68;97717.50;1759683;81;21486;-56
2021/01/24 01:37:33;;;;;;;29.48;20.68;;;;;;;2.35;93.55;97714.93;1759629;81;21402;-56
2021/01/24 01:40:01;;;;;;;33.05;21.40;;;;;;;2.34;93.49;97714.50;1759490;81;21707;-56
2021/01/24 01:42:29;;;;;;;31.77;22.05;;;;;;;2.34;93.41;97719.63;1759571;81;21131;-56
2021/01/24 01:44:57;;;;;;;32.95;20.75;;;;;;;2.33;93.40;97716.67;1759505;81;21088;-57
2021/01/24 01:47:26;;;;;;;26.07;20.00;;;;;;;2.31;93.36;97712.03;1759478;81;21088;-56
2021/01/24 01:49:55;;;;;;;29.65;19.27;;;;;;;2.32;93.43;97710.31;1752120;80;22095;-56
2021/01/24 01:52:27;;;;;;;27.95;19.42;;;;;;;2.32;93.37;97707.30;1749098;81;21081;-56
2021/01/24 01:54:56;;;;;;;30.02;19.48;;;;;;;2.32;93.41;97700.05;1749074;82;21085;-56
2021/01/24 01:57:24;;;;;;;27.32;19.40;;;;;;;2.35;93.32;97704.67;1749254;80;21518;-57
2021/01/24 01:59:52;;;;;;;27.10;18.87;;;;;;;2.36;93.33;97698.66;1749199;81;21168;-57
2021/01/24 02:02:57;;;;;;;28.73;20.00;;;;;;;2.38;93.31;97694.77;1749110;82;22291;-57
2021/01/24 02:05:58;;;;;;;27.40;18.95;;;;;;;2.38;93.28;97694.77;1660238;86;21181;-57
2021/01/24 02:08:48;;;;;;;;;;;;;;;2.42;93.21;97695.09;1850201;76;22696;-57
2021/01/24 02:11:38;;;;;;;29.82;20.48;;;;;;;2.37;93.05;97690.52;1818177;79;20605;-58
2021/01/24 02:14:30;;;;;;;34.80;22.98;;;;;;;2.35;93.09;97694.42;1769474;79;21106;-56
2021/01/24 02:17:00;;;;;;;36.38;23.67;;;;;;;2.33;93.01;97695.32;1828258;77;21064;-57
2021/01/24 02:19:48;;;;;;;32.42;22.45;;;;;;;2.30;93.18;97698.82;1828253;78;21465;-56
2021/01/24 02:22:16;;;;;;;33.90;22.00;;;;;;;2.29;93.18;97698.42;1817709;78;21104;-57
2021/01/24 02:24:48;;;;;;;27.62;20.20;;;;;;;2.28;93.14;97696.75;1828247;78;21198;-57
2021/01/24 02:27:24;;;;;;;78.57;48.75;;;;;;;2.28;93.20;97694.19;1828278;78;22221;-57
2021/01/24 02:30:23;;;;;;;64.12;41.45;;;;;;;2.31;93.28;97688.12;1821513;78;21077;-56
2021/01/24 02:32:58;;;;;;;40.90;26.95;;;;;;;2.35;93.36;97682.88;1828248;78;21592;-57
2021/01/24 02:35:28;;;;;;;37.30;23.30;;;;;;;2.39;93.26;97674.64;1828377;78;21116;-56
2021/01/24 02:37:57;;;;;;;34.48;22.45;;;;;;;2.39;93.15;97666.51;1828242;78;21109;-57
2021/01/24 02:40:26;;;;;;;33.33;21.10;;;;;;;2.40;93.10;97678.44;1828264;78;22223;-57
2021/01/24 02:42:54;;;;;;;33.53;21.50;;;;;;;2.38;92.97;97681.50;1828180;78;21136;-57
2021/01/24 02:45:23;;;;;;;26.95;18.98;;;;;;;2.35;93.04;97677.75;1828238;78;21088;-56
2021/01/24 02:47:50;;;;;;;30.68;20.23;;;;;;;2.34;93.12;97679.05;1828205;78;21041;-57
2021/01/24 02:50:18;;;;;;;29.00;19.32;;;;;;;2.33;93.12;97674.81;1801105;78;21105;-57
2021/01/24 02:52:46;;;;;;;29.67;20.60;;;;;;;2.31;93.11;97671.45;1828274;78;21186;-56
2021/01/24 02:55:14;;;;;;;30.65;20.70;;;;;;;2.30;93.11;97674.91;1828103;78;21131;-57
2021/01/24 02:57:42;;;;;;;31.02;21.60;;;;;;;2.27;93.18;97674.97;1828228;78;21105;-56
2021/01/24 03:00:13;;;;;;;27.60;18.98;;;;;;;2.24;93.19;97673.34;1828049;78;21048;-57
2021/01/24 03:02:40;;;;;;;29.65;20.82;;;;;;;2.21;93.25;97666.58;1828236;78;21053;-57
2021/01/24 03:05:10;;;;;;;29.45;20.72;;;;;;;2.20;93.30;97662.79;1828129;78;21187;-57
2021/01/24 03:07:38;;;;;;;36.63;23.30;;;;;;;2.17;93.37;97664.13;1828086;78;21133;-57
2021/01/24 03:10:07;;;;;;;32.40;21.65;;;;;;;2.14;93.47;97657.82;1828081;78;21104;-57
2021/01/24 03:12:43;;;;;;;32.85;21.45;;;;;;;2.12;93.54;97660.87;1828076;78;21152;-57
2021/01/24 03:15:13;;;;;;;33.92;22.93;;;;;;;2.09;93.62;97658.38;1802679;78;21748;-57
2021/01/24 03:17:40;;;;;;;33.45;21.45;;;;;;;2.07;93.69;97651.17;1800971;78;22244;-56
2021/01/24 03:20:09;;;;;;;34.25;22.75;;;;;;;2.05;93.73;97652.95;1800332;78;21064;-56
2021/01/24 03:22:37;;;;;;;34.35;22.80;;;;;;;2.04;93.85;97649.95;1800472;78;21553;-56
2021/01/24 03:25:07;;;;;;;36.00;22.82;;;;;;;2.03;93.95;97647.00;1800368;78;21120;-56
2021/01/24 03:27:36;;;;;;;31.12;21.17;;;;;;;2.05;94.07;97642.70;1827625;78;21093;-56
2021/01/24 03:30:07;;;;;;;38.90;25.45;;;;;;;2.08;94.14;97649.84;1827447;78;21342;-58
2021/01/24 03:32:35;;;;;;;32.80;22.00;;;;;;;2.13;94.21;97645.89;1827584;78;21112;-56
2021/01/24 03:35:05;;;;;;;38.25;23.12;;;;;;;2.16;94.16;97637.66;1827610;78;21042;-56
2021/01/24 03:37:32;;;;;;;32.67;22.22;;;;;;;2.18;93.99;97637.61;1827614;78;21120;-56
2021/01/24 03:40:00;;;;;;;36.95;24.50;;;;;;;2.17;93.98;97630.81;1827629;78;21049;-56
2021/01/24 03:42:28;;;;;;;41.55;25.25;;;;;;;2.19;93.96;97630.31;1827562;78;21454;-56
2021/01/24 03:44:56;;;;;;;44.38;24.75;;;;;;;2.20;93.93;97634.14;1827511;78;21131;-56
2021/01/24 03:47:24;;;;;;;36.38;22.65;;;;;;;2.21;93.89;97631.14;1827502;78;21163;-56
2021/01/24 03:49:52;;;;;;;35.63;22.37;;;;;;;2.20;93.97;97631.58;1827681;78;21048;-56
2021/01/24 03:52:19;;;;;;;33.50;21.52;;;;;;;2.21;94.02;97627.29;1827587;78;21044;-56
2021/01/24 03:54:47;;;;;;;43.00;25.48;;;;;;;2.23;94.07;97619.11;1827600;78;21362;-56
2021/01/24 03:57:14;;;;;;;42.20;24.95;;;;;;;2.29;94.07;97621.95;1827491;78;21108;-56
2021/01/24 03:59:42;;;;;;;33.80;22.52;;;;;;;2.31;93.97;97618.89;1827590;78;21079;-56
2021/01/24 04:02:10;;;;;;;39.05;24.30;;;;;;;2.34;93.96;97618.80;1827530;78;21049;-56
2021/01/24 04:04:38;;;;;;;48.52;26.55;;;;;;;2.39;94.01;97625.92;1827615;78;21050;-56
2021/01/24 04:07:05;;;;;;;40.90;23.70;;;;;;;2.39;93.93;97617.78;1827536;78;21360;-58
2021/01/24 04:09:33;;;;;;;39.20;25.48;;;;;;;2.40;93.86;97623.31;1827544;78;21167;-56
2021/01/24 04:12:02;;;;;;;39.63;24.50;;;;;;;2.41;93.80;97618.58;1827584;78;21045;-57
2021/01/24 04:14:29;;;;;;;36.35;23.87;;;;;;;2.43;93.82;97612.98;1829994;78;21580;-56
2021/01/24 04:16:57;;;;;;;37.03;24.20;;;;;;;2.45;93.79;97607.36;1830768;77;21136;-61
2021/01/24 04:19:25;;;;;;;37.33;25.88;;;;;;;2.48;93.81;97607.25;1830690;78;21372;-56
2021/01/24 04:21:53;;;;;;;36.68;23.42;;;;;;;2.50;93.74;97608.07;1830692;78;21064;-56
2021/01/24 04:24:20;;;;;;;44.23;27.37;;;;;;;2.55;93.76;97617.34;1830509;78;21104;-56
2021/01/24 04:26:48;;;;;;;42.75;27.07;;;;;;;2.60;93.62;97614.20;1830721;78;21053;-57
2021/01/24 04:29:16;;;;;;;44.58;26.55;;;;;;;2.63;93.57;97618.79;1830689;78;21116;-56
2021/01/24 04:31:44;;;;;;;47.73;27.15;;;;;;;2.67;93.49;97613.98;1830728;78;21495;-56
2021/01/24 04:34:12;;;;;;;50.48;28.45;;;;;;;2.71;93.42;97619.84;1830669;78;21053;-57
2021/01/24 04:36:40;;;;;;;41.13;25.72;;;;;;;2.70;93.16;97623.30;1830826;78;21462;-56
2021/01/24 04:39:08;;;;;;;41.50;24.43;;;;;;;2.66;93.12;97621.28;1830814;78;21052;-58
2021/01/24 04:41:37;;;;;;;38.90;25.27;;;;;;;2.64;93.04;97622.20;1830778;78;21096;-56
2021/01/24 04:44:05;;;;;;;40.20;24.02;;;;;;;2.62;93.15;97625.25;1830764;78;21313;-55
2021/01/24 04:46:34;;;;;;;34.15;22.60;;;;;;;2.60;93.15;97621.45;1830671;78;21068;-55
2021/01/24 04:49:03;;;;;;;36.28;23.52;;;;;;;2.58;93.20;97618.11;1830769;78;21595;-55
2021/01/24 04:51:30;;;;;;;27.07;19.57;;;;;;;2.57;93.30;97619.00;1830661;77;21093;-56
2021/01/24 04:53:58;;;;;;;29.18;21.27;;;;;;;2.59;93.32;97618.50;1830732;78;21892;-58
2021/01/24 04:56:26;;;;;;;33.25;21.40;;;;;;;2.60;93.26;97615.05;1830708;78;21357;-58
2021/01/24 04:58:57;;;;;;;31.82;21.40;;;;;;;2.64;93.34;97606.80;1830683;78;21167;-58
2021/01/24 05:01:24;;;;;;;36.40;24.18;;;;;;;2.68;93.36;97605.39;1830698;78;21088;-58
2021/01/24 05:03:52;;;;;;;31.95;22.05;;;;;;;2.69;93.23;97607.52;1830713;78;21040;-58
2021/01/24 05:06:20;;;;;;;41.13;25.60;;;;;;;2.69;93.10;97593.41;1830788;78;21505;-57
2021/01/24 05:08:48;;;;;;;36.40;24.25;;;;;;;2.67;93.03;97597.75;1830737;78;22352;-57
2021/01/24 05:11:16;;;;;;;36.58;23.92;;;;;;;2.65;93.05;97598.25;1830736;77;21588;-56
2021/01/24 05:13:44;;;;;;;38.73;24.27;;;;;;;2.61;93.06;97596.65;1833451;78;21119;-56
2021/01/24 05:16:12;;;;;;;37.17;23.83;;;;;;;2.56;93.13;97592.08;1839727;78;21198;-57
2021/01/24 05:18:40;;;;;;;40.23;23.75;;;;;;;2.52;93.23;97592.63;1839799;77;21064;-56
2021/01/24 05:21:09;;;;;;;36.75;22.98;;;;;;;2.47;93.36;97579.93;1816626;78;21532;-56
2021/01/24 05:23:37;;;;;;;34.92;21.65;;;;;;;2.44;93.48;97587.73;1816493;78;21139;-56
2021/01/24 05:26:08;;;;;;;34.35;21.68;;;;;;;2.43;93.60;97594.19;1825183;78;21570;-56
2021/01/24 05:28:36;;;;;;;36.98;23.18;;;;;;;2.41;93.66;97593.37;1813845;78;21097;-56
2021/01/24 05:31:05;;;;;;;42.55;24.50;;;;;;;2.38;93.77;97593.03;1787619;78;21135;-56
2021/01/24 05:33:32;;;;;;;37.60;22.95;;;;;;;2.37;93.90;97601.61;1839208;78;21370;-56
2021/01/24 05:36:05;;;;;;;38.42;23.20;;;;;;;2.35;94.03;97598.27;1839155;78;21065;-56
2021/01/24 05:38:33;;;;;;;30.97;21.33;;;;;;;2.36;94.13;97601.22;1839178;78;21144;-56
2021/01/24 05:41:09;;;;;;;35.75;23.65;;;;;;;2.36;94.24;97592.24;1839232;78;21719;-56
2021/01/24 05:43:42;;;;;;;39.95;25.72;;;;;;;2.38;94.31;97593.03;1839102;78;21128;-57
2021/01/24 05:46:11;;;;;;;34.08;22.65;;;;;;;2.40;94.36;97595.55;1839136;78;21397;-57
2021/01/24 05:48:49;;;;;;;39.33;24.55;;;;;;;2.44;94.37;97595.42;1839215;77;21572;-57
2021/01/24 05:51:17;;;;;;;40.75;24.52;;;;;;;2.49;94.34;97593.58;1839252;78;21553;-57
2021/01/24 05:53:47;;;;;;;35.60;24.30;;;;;;;2.55;94.26;97592.53;1839165;78;21123;-57
2021/01/24 05:56:40;;;;;;;51.68;27.87;;;;;;;2.57;94.14;97593.77;1839257;78;21548;-57
2021/01/24 05:59:10;;;;;;;45.83;27.37;;;;;;;2.57;94.12;97596.33;1786692;80;22280;-55
2021/01/24 06:01:38;;;;;;;42.60;24.90;;;;;;;2.58;94.15;97596.75;1786520;79;21148;-56
2021/01/24 06:04:06;;;;;;;40.83;25.27;;;;;;;2.60;94.03;97601.38;1786654;80;21522;-56
2021/01/24 06:06:33;;;;;;;83.35;44.13;;;;;;;2.62;94.01;97593.19;1786533;80;21732;-56
2021/01/24 06:09:01;;;;;;;65.22;39.63;;;;;;;2.64;94.06;97590.13;1786578;80;21144;-56
2021/01/24 06:11:29;;;;;;;48.23;31.05;;;;;;;2.69;94.00;97590.39;1786576;79;21196;-56
2021/01/24 06:13:57;;;;;;;38.00;26.93;;;;;;;2.72;93.89;97586.89;1786480;79;21061;-55
2021/01/24 06:16:32;;;;;;;33.67;25.72;;;;;;;2.74;93.79;97583.85;1786484;80;21593;-55
2021/01/24 06:19:04;;;;;;;28.77;20.70;;;;;;;2.77;93.72;97582.47;1786608;80;21062;-55
2021/01/24 06:21:45;;;;;;;32.65;23.35;;;;;;;2.81;93.63;97585.79;1786567;80;21133;-56
2021/01/24 06:24:17;;;;;;;31.70;21.05;;;;;;;2.82;93.50;97587.02;1786576;80;21358;-55
2021/01/24 06:26:48;;;;;;;28.75;20.95;;;;;;;2.85;93.42;97586.08;1786513;79;21059;-56
2021/01/24 06:29:16;;;;;;;31.45;22.27;;;;;;;2.83;93.32;97589.14;1786528;80;21474;-56
2021/01/24 06:31:47;;;;;;;37.83;23.02;;;;;;;2.84;93.23;97583.95;1766948;80;21561;-56
2021/01/24 06:34:15;;;;;;;35.08;24.80;;;;;;;2.86;93.29;97591.16;1786661;80;21558;-56
2021/01/24 06:37:19;;;;;;;33.58;24.10;;;;;;;2.90;93.24;97591.91;1786566;79;21252;-56
2021/01/24 06:39:52;;;;;;;31.50;22.22;;;;;;;2.93;93.18;97589.24;1786508;80;21057;-56
2021/01/24 06:42:48;;;;;;;33.18;21.35;;;;;;;3.01;93.25;97583.42;1786506;80;21038;-56
2021/01/24 06:45:30;;;;;;;34.95;23.42;;;;;;;3.08;93.08;97588.76;1786781;80;21156;-56
2021/01/24 06:47:59;;;;;;;31.25;21.48;;;;;;;3.17;92.93;97583.77;1786546;80;21061;-56
2021/01/24 06:50:49;;;;;;;37.13;24.43;;;;;;;3.23;92.70;97583.57;1786586;80;22159;-58
2021/01/24 06:53:26;;;;;;;37.23;25.62;;;;;;;3.28;92.48;97585.56;1786340;80;21673;-56
2021/01/24 06:56:05;;;;;;;46.08;29.87;;;;;;;3.33;92.22;97581.12;1786852;80;21586;-56
2021/01/24 06:58:38;;;;;;;48.00;30.55;;;;;;;3.37;91.97;97577.55;1795497;79;21162;-56
2021/01/24 07:01:28;;;;;;;45.08;28.17;;;;;;;3.36;91.60;97579.72;1797687;79;21543;-56
2021/01/24 07:04:30;;;;;;;76.37;44.03;;;;;;;3.35;91.49;97579.33;1800161;79;21435;-56
2021/01/24 07:07:16;;;;;;;51.40;30.27;;;;;;;3.37;91.43;97583.97;1800092;79;21531;-55
2021/01/24 07:09:47;;;;;;;35.38;24.98;;;;;;;3.38;91.33;97579.22;1800158;79;21492;-57
2021/01/24 07:12:15;;;;;;;37.10;23.90;;;;;;;3.39;91.18;97582.17;1800122;79;21114;-57
2021/01/24 07:14:45;;;;;;;31.07;22.13;;;;;;;3.41;91.00;97588.57;1800102;79;21111;-57
2021/01/24 07:17:17;;;;;;;33.00;22.82;;;;;;;3.39;90.91;97588.59;1800252;79;21571;-57
2021/01/24 07:19:53;;;;;;;32.28;22.15;;;;;;;3.40;90.89;97592.87;1800090;79;21122;-57
2021/01/24 07:22:23;;;;;;;29.18;20.82;;;;;;;3.40;90.88;97594.57;1800188;79;21130;-57
2021/01/24 07:24:54;;;;;;;35.58;22.87;;;;;;;3.39;90.94;97589.88;1800207;79;21599;-57
2021/01/24 07:27:29;;;;;;;34.43;24.15;;;;;;;3.40;90.92;97595.44;1800053;79;21142;-57
2021/01/24 07:29:57;;;;;;;29.75;21.70;;;;;;;3.42;90.96;97592.81;1800141;79;21354;-57
2021/01/24 07:32:26;;;;;;;34.43;24.92;;;;;;;3.43;90.99;97599.18;1800000;79;21157;-57
2021/01/24 07:34:54;;;;;;;34.55;23.00;;;;;;;3.45;91.01;97593.54;1800140;79;21611;-56
2021/01/24 07:37:23;;;;;;;36.28;24.45;;;;;;;3.45;91.04;97588.40;1799890;79;21578;-56
2021/01/24 07:39:52;;;;;;;33.05;23.42;;;;;;;3.47;91.10;97593.03;1800107;79;21158;-56
2021/01/24 07:42:20;;;;;;;29.90;21.90;;;;;;;3.48;91.22;97593.91;1800176;79;21367;-56
2021/01/24 07:44:47;;;;;;;29.90;22.32;;;;;;;3.50;91.34;97590.38;1799980;79;21115;-56
2021/01/24 07:47:15;;;;;;;131.15;67.10;;;;;;;3.51;91.33;97592.05;1800117;79;21087;-56
2021/01/24 07:49:44;;;;;;;296.90;137.18;;;;;;;3.52;91.40;97592.44;1800077;79;21163;-57
2021/01/24 07:52:12;;;;;;;374.37;179.65;;;;;;;3.53;91.46;97589.42;1800114;79;21119;-56
2021/01/24 07:54:40;;;;;;;417.05;223.13;;;;;;;3.55;91.52;97591.48;1799985;79;21359;-57
2021/01/24 07:57:09;;;;;;;64.20;39.58;;;;;;;3.56;91.58;97594.48;1746898;79;21186;-56
2021/01/24 07:59:36;;;;;;;260.63;142.35;;;;;;;3.54;91.61;97589.38;1774518;80;21068;-59
2021/01/24 08:02:05;;;;;;;206.40;155.27;;;;;;;3.52;91.71;97587.75;1774870;80;21969;-56
2021/01/24 08:04:36;;;;;;;45.90;32.63;;;;;;;3.54;91.88;97594.95;1794410;80;21135;-56
2021/01/24 08:07:07;;;;;;;68.83;42.17;;;;;;;3.57;92.01;97598.28;1794478;80;21326;-55
2021/01/24 08:09:36;;;;;;;44.08;32.73;;;;;;;3.59;92.04;97592.63;1794326;80;21087;-57
2021/01/24 08:12:14;;;;;;;60.12;46.33;;;;;;;3.59;92.01;97597.77;1794408;80;21115;-56
2021/01/24 08:14:42;;;;;;;116.37;71.25;;;;;;;3.58;92.12;97594.81;1794425;80;21574;-56
2021/01/24 08:17:13;;;;;;;93.17;46.20;;;;;;;3.58;92.23;97593.53;1794480;80;21052;-57
2021/01/24 08:19:42;;;;;;;51.83;31.37;;;;;;;3.61;92.30;97598.55;1775106;80;22296;-57
2021/01/24 08:22:10;;;;;;;42.53;29.20;;;;;;;3.65;92.47;97600.59;1794319;80;21102;-57
2021/01/24 08:24:40;;;;;;;83.27;50.25;;;;;;;3.70;92.51;97590.97;1794377;80;21056;-56
2021/01/24 08:27:08;;;;;;;54.15;41.90;;;;;;;3.76;92.34;97597.19;1794546;80;21063;-56
2021/01/24 08:29:37;;;;;;;40.85;32.20;;;;;;;3.81;92.44;97599.17;1794354;80;21595;-55
2021/01/24 08:32:06;;;;;;;193.90;66.53;;;;;;;3.84;92.44;97594.36;1750047;80;21380;-57
2021/01/24 08:34:34;;;;;;;75.57;40.85;;;;;;;3.88;92.27;97594.66;1794422;80;21542;-60
2021/01/24 08:37:05;;;;;;;51.42;32.00;;;;;;;3.88;92.39;97595.94;1794435;80;21150;-56
2021/01/24 08:39:33;;;;;;;39.60;25.48;;;;;;;3.91;92.42;97597.11;1794334;80;21135;-57
2021/01/24 08:42:05;;;;;;;36.38;23.75;;;;;;;3.95;92.38;97595.28;1774511;80;21076;-57
2021/01/24 08:44:34;;;;;;;37.08;27.42;;;;;;;3.93;92.27;97588.92;1794101;79;22049;-56
2021/01/24 08:47:06;;;;;;;37.93;31.95;;;;;;;3.94;92.28;97594.90;1793494;80;21174;-56
2021/01/24 08:49:34;;;;;;;102.02;42.17;;;;;;;3.95;92.40;97586.28;1793815;80;21552;-57
2021/01/24 08:52:03;;;;;;;57.75;31.85;;;;;;;3.99;92.53;97591.25;1793848;80;21118;-57
2021/01/24 08:54:40;;;;;;;50.40;29.67;;;;;;;4.04;92.43;97593.67;1793140;80;21179;-57
2021/01/24 08:57:13;;;;;;;46.50;28.27;;;;;;;4.05;92.40;97591.03;1793906;80;21435;-57
2021/01/24 08:59:58;;;;;;;37.73;26.52;;;;;;;4.04;92.28;97589.81;1798752;79;22028;-57
2021/01/24 09:02:33;;;;;;;31.57;22.13;;;;;;;4.04;92.31;97585.50;1800105;79;21039;-57
2021/01/24 09:05:13;;;;;;;77.75;46.35;;;;;;;4.02;92.04;97587.30;1800145;79;21563;-56
2021/01/24 09:07:48;;;;;;;55.50;33.38;;;;;;;3.97;92.08;97584.05;1800034;79;21079;-56
2021/01/24 09:10:22;;;;;;;42.35;28.95;;;;;;;3.94;92.12;97581.59;1800080;79;21090;-56
2021/01/24 09:12:53;;;;;;;61.63;39.53;;;;;;;3.90;92.28;97576.98;1800044;79;21603;-56
2021/01/24 09:15:21;;;;;;;72.42;44.35;;;;;;;3.88;92.40;97583.09;1799447;79;21643;-56
2021/01/24 09:17:50;;;;;;;98.22;49.83;;;;;;;3.85;92.47;97576.34;1800039;79;21572;-56
2021/01/24 09:20:19;;;;;;;92.30;47.67;;;;;;;3.84;92.62;97571.22;1800016;79;21075;-56
2021/01/24 09:22:48;;;;;;;101.20;49.13;;;;;;;3.84;92.72;97571.22;1800067;79;22170;-56
2021/01/24 09:25:15;;;;;;;98.03;43.78;;;;;;;3.82;92.72;97566.59;1799945;79;21115;-56
2021/01/24 09:27:43;;;;;;;98.85;45.78;;;;;;;3.82;92.94;97565.30;1799917;79;21119;-55
2021/01/24 09:30:14;;;;;;;59.55;28.87;;;;;;;3.84;92.88;97568.66;1800026;79;21182;-56
2021/01/24 09:32:43;;;;;;;50.25;28.95;;;;;;;3.84;92.99;97560.94;1799622;79;21170;-56
2021/01/24 09:35:12;;;;;;;69.53;35.83;;;;;;;3.82;92.96;97557.14;1800120;79;22047;-56
2021/01/24 09:37:40;;;;;;;49.70;28.75;;;;;;;3.82;93.09;97555.02;1799893;79;21087;-58
2021/01/24 09:40:09;;;;;;;46.00;30.17;;;;;;;3.86;93.42;97554.04;1799979;79;21047;-58
2021/01/24 09:42:37;;;;;;;57.93;31.77;;;;;;;3.90;93.49;97553.86;1800048;79;21508;-58
2021/01/24 09:45:27;;;;;;;67.03;38.60;;;;;;;3.95;93.39;97547.28;1800028;79;21147;-58
2021/01/24 09:47:56;;;;;;;47.73;30.70;;;;;;;3.98;93.53;97542.02;1796065;80;21365;-58
2021/01/24 09:50:25;;;;;;;65.60;37.03;;;;;;;4.01;93.46;97542.37;1796124;80;21091;-57
2021/01/24 09:52:54;;;;;;;49.83;29.82;;;;;;;4.04;93.58;97543.08;1796021;80;21557;-58
2021/01/24 09:55:21;;;;;;;64.77;36.28;;;;;;;4.12;93.59;97535.09;1796085;80;21596;-58
2021/01/24 09:57:49;;;;;;;96.70;45.52;;;;;;;4.15;93.55;97537.53;1795999;80;21182;-55
2021/01/24 10:00:19;;;;;;;53.45;31.12;;;;;;;4.21;93.60;97534.74;1796106;80;21141;-58
2021/01/24 10:02:46;;;;;;;53.92;33.60;;;;;;;4.27;93.60;97529.83;1796039;80;21521;-58
2021/01/24 10:05:14;;;;;;;53.70;33.63;;;;;;;4.32;93.48;97526.64;1796046;80;21040;-58
2021/01/24 10:07:42;;;;;;;83.97;43.75;;;;;;;4.42;93.54;97520.23;1795878;80;21104;-56
2021/01/24 10:10:12;;;;;;;71.60;41.15;;;;;;;4.49;93.36;97528.56;1795999;80;21841;-56
2021/01/24 10:12:40;;;;;;;64.17;37.95;;;;;;;4.53;93.30;97516.80;1796013;80;21388;-56
2021/01/24 10:15:10;;;;;;;63.08;36.85;;;;;;;4.58;93.21;97521.32;1795949;80;21174;-56
2021/01/24 10:17:37;;;;;;;53.70;34.00;;;;;;;4.59;93.00;97517.84;1796002;80;21171;-57
2021/01/24 10:20:07;;;;;;;51.33;32.83;;;;;;;4.54;92.92;97511.23;1796136;80;21476;-56
2021/01/24 10:22:35;;;;;;;55.52;34.08;;;;;;;4.53;93.15;97511.64;1796107;80;21492;-56
2021/01/24 10:25:05;;;;;;;57.05;36.35;;;;;;;4.52;93.27;97507.41;1796025;80;21196;-56
2021/01/24 10:27:33;;;;;;;45.48;29.23;;;;;;;4.53;93.40;97509.07;1795925;79;21072;-56
2021/01/24 10:30:00;;;;;;;47.00;30.45;;;;;;;4.53;93.46;97506.50;1796142;80;21576;-56
2021/01/24 10:32:29;;;;;;;47.55;30.90;;;;;;;4.52;93.53;97499.69;1796223;80;21115;-56
2021/01/24 10:34:59;;;;;;;70.67;41.37;;;;;;;4.49;93.54;97497.24;1796225;79;21182;-57
2021/01/24 10:37:26;;;;;;;54.53;34.27;;;;;;;4.47;93.61;97496.47;1796255;80;21352;-56
2021/01/24 10:39:54;;;;;;;58.52;35.73;;;;;;;4.49;93.87;97491.26;1796100;80;21128;-56
2021/01/24 10:42:23;;;;;;;54.53;34.18;;;;;;;4.50;94.05;97487.33;1796203;80;21080;-56
2021/01/24 10:44:51;;;;;;;46.28;30.10;;;;;;;4.55;94.15;97488.00;1796132;80;21115;-56
2021/01/24 10:47:19;;;;;;;42.70;28.65;;;;;;;4.57;94.10;97485.36;1790238;80;22176;-57
2021/01/24 10:49:46;;;;;;;41.63;27.60;;;;;;;4.54;94.07;97482.47;1787426;80;22353;-57
2021/01/24 10:52:14;;;;;;;37.85;27.25;;;;;;;4.55;94.17;97481.56;1787570;80;21505;-56
2021/01/24 10:54:43;;;;;;;49.50;33.00;;;;;;;4.54;94.27;97481.19;1787465;80;21049;-57
2021/01/24 10:57:10;;;;;;;80.40;44.23;;;;;;;4.51;94.26;97473.57;1787530;80;21119;-56
2021/01/24 10:59:38;;;;;;;72.45;42.13;;;;;;;4.50;94.41;97476.20;1787505;80;21158;-56
2021/01/24 11:02:06;;;;;;;46.77;31.12;;;;;;;4.48;94.67;97473.70;1787540;80;21211;-56
2021/01/24 11:04:33;;;;;;;45.80;29.05;;;;;;;4.47;94.86;97468.63;1787463;80;21073;-58
2021/01/24 11:07:03;;;;;;;55.43;34.33;;;;;;;4.48;95.06;97463.86;1787418;80;21131;-56
2021/01/24 11:09:31;;;;;;;45.78;31.25;;;;;;;4.51;95.33;97458.58;1787472;80;21128;-56
2021/01/24 11:11:59;;;;;;;40.28;27.87;;;;;;;4.52;95.47;97459.80;1787514;80;21103;-56
2021/01/24 11:14:27;;;;;;;41.00;27.45;;;;;;;4.50;95.49;97452.60;1787466;80;21478;-56
2021/01/24 11:16:55;;;;;;;39.92;28.92;;;;;;;4.48;95.54;97451.83;1787282;80;21167;-56
2021/01/24 11:19:22;;;;;;;46.50;32.38;;;;;;;4.43;95.56;97445.57;1787484;80;21052;-56
2021/01/24 11:21:50;;;;;;;44.73;30.52;;;;;;;4.39;95.70;97448.34;1787430;80;21101;-56
2021/01/24 11:24:18;;;;;;;49.25;32.73;;;;;;;4.36;95.83;97448.45;1787495;80;21191;-56
2021/01/24 11:26:46;;;;;;;56.48;36.08;;;;;;;4.32;95.94;97449.48;1787448;80;21265;-56
2021/01/24 11:29:14;;;;;;;46.37;30.00;;;;;;;4.29;96.02;97449.58;1787450;80;21097;-56
2021/01/24 11:31:42;;;;;;;35.78;24.90;;;;;;;4.26;96.47;97440.25;1787485;80;21139;-56
2021/01/24 11:34:09;;;;;;;48.58;31.68;;;;;;;4.26;96.69;97441.55;1787510;80;21144;-56
2021/01/24 11:36:37;;;;;;;67.53;41.05;;;;;;;4.31;96.97;97434.95;1787496;80;21052;-57
2021/01/24 11:39:05;;;;;;;52.67;33.83;;;;;;;4.36;97.07;97431.72;1787486;80;21135;-56